createdAt,value
2023-04-24T00:04:18.742Z,11.20
2023-04-24T00:09:26.586Z,11.10
2023-04-24T00:14:34.176Z,10.95
2023-04-24T00:19:41.855Z,10.83
2023-04-24T00:24:49.507Z,10.69
2023-04-24T00:29:57.061Z,10.59
2023-04-24T00:35:05.034Z,10.58
2023-04-24T00:40:14.212Z,10.50
2023-04-24T00:45:22.526Z,10.37
2023-04-24T00:50:30.842Z,10.19
2023-04-24T00:55:39.628Z,10.06
2023-04-24T01:00:49.128Z,9.92
2023-04-24T01:05:57.248Z,9.78
2023-04-24T01:11:08.167Z,9.77
2023-04-24T01:16:16.198Z,9.79
2023-04-24T01:21:26.466Z,9.90
2023-04-24T01:26:34.428Z,9.85
2023-04-24T01:31:42.312Z,9.69
2023-04-24T01:36:50.589Z,9.56
2023-04-24T01:41:58.532Z,9.46
2023-04-24T01:47:07.979Z,9.33
2023-04-24T01:52:15.602Z,9.21
2023-04-24T01:57:24.052Z,9.14
2023-04-24T02:02:31.823Z,9.11
2023-04-24T02:07:39.811Z,9.06
2023-04-24T02:12:47.275Z,8.96
2023-04-24T02:17:54.668Z,8.85
2023-04-24T02:23:03.213Z,8.76
2023-04-24T02:28:10.742Z,8.76
2023-04-24T02:33:18.097Z,8.63
2023-04-24T02:38:25.694Z,8.49
2023-04-24T02:43:33.380Z,8.46
2023-04-24T02:48:40.940Z,8.52
2023-04-24T02:53:48.719Z,8.50
2023-04-24T02:58:56.430Z,8.35
2023-04-24T03:04:04.062Z,8.22
2023-04-24T03:09:14.008Z,7.99
2023-04-24T03:14:21.613Z,7.96
2023-04-24T03:22:13.575Z,7.96
2023-04-24T03:27:21.297Z,7.90
2023-04-24T03:32:29.313Z,7.80
2023-04-24T03:37:37.063Z,7.75
2023-04-24T03:42:44.809Z,7.75
2023-04-24T03:47:52.203Z,7.70
2023-04-24T03:53:01.661Z,7.69
2023-04-24T03:58:09.429Z,7.78
2023-04-24T04:03:17.857Z,7.84
2023-04-24T04:08:25.673Z,7.76
2023-04-24T04:13:33.190Z,7.67
2023-04-24T04:18:40.579Z,7.58
2023-04-24T04:23:48.172Z,7.49
2023-04-24T04:28:55.767Z,7.47
2023-04-24T04:34:05.186Z,7.56
2023-04-24T04:39:12.553Z,7.75
2023-04-24T04:44:19.976Z,7.81
2023-04-24T04:49:29.927Z,7.86
2023-04-24T04:54:37.745Z,7.95
2023-04-24T04:59:45.605Z,8.15
2023-04-24T05:04:54.671Z,8.41
2023-04-24T05:10:02.478Z,8.66
2023-04-24T05:15:11.478Z,8.87
2023-04-24T05:20:19.256Z,9.13
2023-04-24T05:25:26.822Z,9.44
2023-04-24T05:30:36.532Z,9.79
2023-04-24T05:35:49.681Z,10.24
2023-04-24T05:40:56.976Z,10.76
2023-04-24T05:46:04.493Z,11.25
2023-04-24T05:53:23.278Z,11.92
2023-04-24T05:58:31.306Z,12.37
2023-04-24T06:03:39.312Z,12.80
2023-04-24T06:08:46.806Z,13.20
2023-04-24T06:13:54.370Z,13.58
2023-04-24T06:19:01.624Z,13.93
2023-04-24T06:24:09.055Z,14.26
2023-04-24T06:29:16.408Z,14.55
2023-04-24T06:34:24.438Z,14.76
2023-04-24T06:39:31.725Z,14.95
2023-04-24T06:44:42.242Z,15.14
2023-04-24T06:54:39.819Z,15.42
2023-04-24T06:59:47.279Z,15.51
2023-04-24T07:04:55.196Z,15.60
2023-04-24T07:10:03.015Z,15.68
2023-04-24T07:15:13.108Z,15.77
2023-04-24T07:20:20.698Z,15.89
2023-04-24T07:25:28.320Z,16.04
2023-04-24T07:30:35.598Z,16.20
2023-04-24T07:35:43.440Z,16.36
2023-04-24T07:40:50.566Z,16.53
2023-04-24T07:45:57.988Z,16.71
2023-04-24T07:51:05.570Z,16.90
2023-04-24T07:56:13.276Z,17.15
2023-04-24T08:01:20.586Z,17.39
2023-04-24T08:06:31.672Z,17.66
2023-04-24T08:11:39.286Z,17.98
2023-04-24T08:16:46.473Z,18.22
2023-04-24T08:21:53.793Z,18.46
2023-04-24T08:27:02.624Z,18.73
2023-04-24T08:32:09.982Z,18.97
2023-04-24T08:37:17.490Z,19.16
2023-04-24T08:42:25.561Z,19.28
2023-04-24T08:47:34.886Z,19.46
2023-04-24T08:52:44.516Z,19.62
2023-04-24T08:57:55.519Z,19.75
2023-04-24T09:03:07.275Z,19.81
2023-04-24T09:08:15.171Z,19.89
2023-04-24T09:13:23.122Z,19.97
2023-04-24T09:18:30.203Z,20.03
2023-04-24T09:23:37.658Z,20.11
2023-04-24T09:28:45.446Z,20.19
2023-04-24T09:34:02.032Z,20.24
2023-04-24T09:39:12.087Z,20.24
2023-04-24T09:44:21.260Z,20.26
2023-04-24T09:49:31.386Z,20.29
2023-04-24T09:54:39.829Z,20.34
2023-04-24T10:05:40.210Z,20.43
2023-04-24T10:10:46.328Z,20.45
2023-04-24T10:15:51.111Z,20.49
2023-04-24T10:20:56.277Z,20.61
2023-04-24T10:26:01.509Z,20.67
2023-04-24T10:31:06.608Z,20.73
2023-04-24T10:36:12.408Z,20.69
2023-04-24T10:41:21.282Z,20.64
2023-04-24T10:46:31.256Z,20.55
2023-04-24T10:51:50.064Z,20.48
2023-04-24T10:56:54.751Z,20.43
2023-04-24T11:01:59.068Z,20.43
2023-04-24T11:07:05.093Z,20.36
2023-04-24T11:12:09.869Z,20.30
2023-04-24T11:17:33.641Z,20.32
2023-04-24T11:22:40.437Z,20.37
2023-04-24T11:27:47.076Z,20.45
2023-04-24T11:32:53.386Z,20.55
2023-04-24T11:43:07.896Z,20.77
2023-04-24T11:48:12.278Z,20.80
2023-04-24T11:53:16.786Z,20.85
2023-04-24T11:58:23.688Z,20.95
2023-04-24T12:03:30.007Z,21.04
2023-04-24T12:08:36.030Z,21.13
2023-04-24T12:13:42.058Z,21.16
2023-04-24T12:18:47.071Z,21.16
2023-04-24T12:23:51.893Z,21.15
2023-04-24T12:28:57.062Z,21.13
2023-04-24T12:34:01.221Z,21.08
2023-04-24T12:39:17.076Z,21.01
2023-04-24T12:44:21.197Z,20.93
2023-04-24T12:49:25.484Z,20.86
2023-04-24T12:54:34.700Z,20.80
2023-04-24T12:59:40.361Z,20.40
2023-04-24T13:04:44.843Z,19.79
2023-04-24T13:09:51.050Z,19.30
2023-04-24T13:14:56.263Z,18.88
2023-04-24T13:20:00.456Z,18.55
2023-04-24T13:25:08.065Z,18.31
2023-04-24T13:30:14.374Z,18.14
2023-04-24T13:35:19.173Z,17.99
2023-04-24T13:40:23.110Z,17.88
2023-04-24T13:45:27.940Z,17.78
2023-04-24T13:50:32.185Z,17.72
2023-04-24T13:55:36.297Z,17.64
2023-04-24T14:00:41.505Z,17.53
2023-04-24T14:05:45.808Z,17.42
2023-04-24T14:10:50.127Z,17.31
2023-04-24T14:15:54.328Z,17.22
2023-04-24T14:20:58.732Z,17.16
2023-04-24T14:26:03.416Z,17.15
2023-04-24T14:31:07.943Z,17.15
2023-04-24T14:36:12.392Z,17.16
2023-04-24T14:41:16.632Z,17.15
2023-04-24T14:46:21.243Z,17.10
2023-04-24T14:54:39.910Z,17.03
2023-04-24T14:59:47.222Z,17.02
2023-04-24T15:04:54.672Z,17.02
2023-04-24T15:10:02.105Z,17.00
2023-04-24T15:15:12.786Z,16.97
2023-04-24T15:20:20.541Z,16.93
2023-04-24T15:25:28.345Z,16.93
2023-04-24T15:30:36.222Z,16.92
2023-04-24T15:35:44.017Z,16.91
2023-04-24T15:40:51.180Z,16.92
2023-04-24T15:46:00.234Z,16.89
2023-04-24T15:51:07.733Z,16.88
2023-04-24T15:56:14.945Z,16.84
2023-04-24T16:01:22.392Z,16.76
2023-04-24T16:06:29.695Z,16.67
2023-04-24T16:11:39.847Z,16.53
2023-04-24T16:16:47.435Z,16.42
2023-04-24T16:21:56.581Z,16.32
2023-04-24T16:27:04.089Z,16.22
2023-04-24T16:32:12.161Z,16.12
2023-04-24T16:37:19.623Z,16.02
2023-04-24T16:42:27.233Z,15.96
2023-04-24T16:47:34.810Z,15.87
2023-04-24T16:52:44.197Z,15.74
2023-04-24T16:57:51.615Z,15.65
2023-04-24T17:02:59.325Z,15.62
2023-04-24T17:08:06.842Z,15.57
2023-04-24T17:13:15.359Z,15.49
2023-04-24T17:21:11.427Z,15.41
2023-04-24T17:26:19.720Z,15.34
2023-04-24T17:31:26.860Z,15.27
2023-04-24T17:36:34.560Z,15.19
2023-04-24T17:41:42.970Z,15.11
2023-04-24T17:46:50.719Z,15.00
2023-04-24T17:51:58.233Z,14.86
2023-04-24T17:57:05.938Z,14.73
2023-04-24T18:02:13.760Z,14.54
2023-04-24T18:07:21.157Z,14.34
2023-04-24T18:12:28.346Z,14.18
2023-04-24T18:17:35.750Z,14.06
2023-04-24T18:22:44.022Z,13.94
2023-04-24T18:27:51.312Z,13.82
2023-04-24T18:32:58.648Z,13.71
2023-04-24T18:38:06.552Z,13.60
2023-04-24T18:43:14.140Z,13.44
2023-04-24T18:48:21.328Z,13.29
2023-04-24T18:53:29.161Z,13.21
2023-04-24T18:58:36.562Z,13.12
2023-04-24T19:03:43.886Z,13.04
2023-04-24T19:08:52.145Z,12.95
2023-04-24T19:14:03.321Z,12.90
2023-04-24T19:19:11.528Z,12.84
2023-04-24T19:24:19.363Z,12.79
2023-04-24T19:29:26.812Z,12.71
2023-04-24T19:34:34.859Z,12.65
2023-04-24T19:39:42.509Z,12.60
2023-04-24T19:44:49.659Z,12.57
2023-04-24T19:49:57.330Z,12.58
2023-04-24T19:55:04.943Z,12.57
2023-04-24T20:00:14.750Z,12.54
2023-04-24T20:05:22.241Z,12.52
2023-04-24T20:10:30.069Z,12.48
2023-04-24T20:15:37.494Z,12.46
2023-04-24T20:20:44.920Z,12.44
2023-04-24T20:25:58.434Z,12.42
2023-04-24T20:31:06.611Z,12.38
2023-04-24T20:36:14.014Z,12.36
2023-04-24T20:41:21.331Z,12.34
2023-04-24T20:46:28.867Z,12.32
2023-04-24T20:51:37.348Z,12.30
2023-04-24T20:56:46.093Z,12.30
2023-04-24T21:01:53.658Z,12.32
2023-04-24T21:07:01.213Z,12.31
2023-04-24T21:12:11.994Z,12.30
2023-04-24T21:17:19.403Z,12.29
2023-04-24T21:22:26.825Z,12.29
2023-04-24T21:27:34.758Z,12.28
2023-04-24T21:32:42.474Z,12.26
2023-04-24T21:37:49.943Z,12.21
2023-04-24T21:42:57.996Z,12.19
2023-04-24T21:48:05.311Z,12.17
2023-04-24T21:53:12.818Z,12.15
2023-04-24T22:04:25.829Z,12.20
2023-04-24T22:09:30.261Z,12.15
2023-04-24T22:14:34.550Z,12.09
2023-04-24T22:19:41.914Z,11.99
2023-04-24T22:24:47.201Z,11.92
2023-04-24T22:29:51.687Z,11.92
2023-04-24T22:34:56.060Z,11.89
2023-04-24T22:40:01.046Z,11.86
2023-04-24T22:45:09.832Z,11.85
2023-04-24T22:50:15.313Z,11.81
2023-04-24T22:55:20.905Z,11.80
2023-04-24T23:00:25.870Z,11.80
2023-04-24T23:05:30.930Z,11.75
2023-04-24T23:10:35.008Z,11.74
2023-04-24T23:15:39.490Z,11.64
2023-04-24T23:20:43.640Z,11.51
2023-04-24T23:25:47.663Z,11.45
2023-04-24T23:30:51.914Z,11.42
2023-04-24T23:35:55.965Z,11.37
2023-04-24T23:41:00.663Z,11.29
2023-04-24T23:46:04.924Z,11.28
2023-04-24T23:51:08.950Z,11.28
2023-04-24T23:56:12.823Z,11.31
